sensor_id;sensor_type;location;lat;lon;timestamp;temperature;humidity
12971;DHT22;6550;48.650;8.774;2023-07-22T00:00:19;14.60;99.90
12971;DHT22;6550;48.650;8.774;2023-07-22T00:02:48;15.00;99.90
12971;DHT22;6550;48.650;8.774;2023-07-22T00:05:18;15.20;99.90
12971;DHT22;6550;48.650;8.774;2023-07-22T00:07:50;14.90;99.90
12971;DHT22;6550;48.650;8.774;2023-07-22T00:10:16;14.80;99.90
12971;DHT22;6550;48.650;8.774;2023-07-22T00:12:43;14.80;99.90
12971;DHT22;6550;48.650;8.774;2023-07-22T00:15:10;15.50;99.90
12971;DHT22;6550;48.650;8.774;2023-07-22T00:17:39;15.00;99.90
12971;DHT22;6550;48.650;8.774;2023-07-22T00:20:10;14.80;99.90
12971;DHT22;6550;48.650;8.774;2023-07-22T00:22:40;14.80;99.90
12971;DHT22;6550;48.650;8.774;2023-07-22T00:25:10;14.40;99.90
12971;DHT22;6550;48.650;8.774;2023-07-22T00:27:42;14.70;99.90
12971;DHT22;6550;48.650;8.774;2023-07-22T00:30:09;14.70;99.90
12971;DHT22;6550;48.650;8.774;2023-07-22T00:32:37;14.60;99.90
12971;DHT22;6550;48.650;8.774;2023-07-22T00:35:07;14.60;99.90
12971;DHT22;6550;48.650;8.774;2023-07-22T00:37:39;14.60;99.90
12971;DHT22;6550;48.650;8.774;2023-07-22T00:40:06;15.30;99.90
12971;DHT22;6550;48.650;8.774;2023-07-22T00:42:41;14.50;99.90
12971;DHT22;6550;48.650;8.774;2023-07-22T00:45:10;14.40;99.90
12971;DHT22;6550;48.650;8.774;2023-07-22T00:47:39;14.30;99.90
12971;DHT22;6550;48.650;8.774;2023-07-22T00:50:09;14.50;99.90
12971;DHT22;6550;48.650;8.774;2023-07-22T00:52:37;15.20;99.90
12971;DHT22;6550;48.650;8.774;2023-07-22T00:55:05;14.40;99.90
12971;DHT22;6550;48.650;8.774;2023-07-22T00:57:32;14.30;99.90
12971;DHT22;6550;48.650;8.774;2023-07-22T00:59:58;14.40;99.90
12971;DHT22;6550;48.650;8.774;2023-07-22T01:02:25;14.30;99.90
12971;DHT22;6550;48.650;8.774;2023-07-22T01:04:53;14.30;99.90
12971;DHT22;6550;48.650;8.774;2023-07-22T01:07:22;14.60;99.90
12971;DHT22;6550;48.650;8.774;2023-07-22T01:09:48;14.20;99.90
12971;DHT22;6550;48.650;8.774;2023-07-22T01:12:15;14.20;99.90
12971;DHT22;6550;48.650;8.774;2023-07-22T01:14:42;14.20;99.90
12971;DHT22;6550;48.650;8.774;2023-07-22T01:17:11;14.20;99.90
12971;DHT22;6550;48.650;8.774;2023-07-22T01:22:06;14.20;99.90
12971;DHT22;6550;48.650;8.774;2023-07-22T01:24:38;14.20;99.90
12971;DHT22;6550;48.650;8.774;2023-07-22T01:27:08;14.10;99.90
12971;DHT22;6550;48.650;8.774;2023-07-22T01:29:38;14.00;99.90
12971;DHT22;6550;48.650;8.774;2023-07-22T01:32:05;13.70;99.90
12971;DHT22;6550;48.650;8.774;2023-07-22T01:34:32;14.00;99.90
12971;DHT22;6550;48.650;8.774;2023-07-22T01:37:01;14.00;99.90
12971;DHT22;6550;48.650;8.774;2023-07-22T01:39:28;14.00;99.90
12971;DHT22;6550;48.650;8.774;2023-07-22T01:41:57;13.90;99.90
12971;DHT22;6550;48.650;8.774;2023-07-22T01:44:24;13.90;99.90
12971;DHT22;6550;48.650;8.774;2023-07-22T01:46:53;13.90;99.90
12971;DHT22;6550;48.650;8.774;2023-07-22T01:49:20;14.00;99.90
12971;DHT22;6550;48.650;8.774;2023-07-22T01:51:50;13.70;99.90
12971;DHT22;6550;48.650;8.774;2023-07-22T01:54:17;14.80;99.90
12971;DHT22;6550;48.650;8.774;2023-07-22T01:56:47;13.80;99.90
12971;DHT22;6550;48.650;8.774;2023-07-22T01:59:13;13.70;99.90
12971;DHT22;6550;48.650;8.774;2023-07-22T02:01:40;14.40;99.90
12971;DHT22;6550;48.650;8.774;2023-07-22T02:04:07;13.70;99.90
12971;DHT22;6550;48.650;8.774;2023-07-22T02:06:36;14.00;99.90
12971;DHT22;6550;48.650;8.774;2023-07-22T02:09:03;13.70;99.90
12971;DHT22;6550;48.650;8.774;2023-07-22T02:11:35;13.60;99.90
12971;DHT22;6550;48.650;8.774;2023-07-22T02:14:02;13.50;99.90
12971;DHT22;6550;48.650;8.774;2023-07-22T02:16:37;13.40;99.90
12971;DHT22;6550;48.650;8.774;2023-07-22T02:21:31;13.50;99.90
12971;DHT22;6550;48.650;8.774;2023-07-22T02:23:58;13.50;99.90
12971;DHT22;6550;48.650;8.774;2023-07-22T02:26:27;13.40;99.90
12971;DHT22;6550;48.650;8.774;2023-07-22T02:28:54;13.60;99.90
12971;DHT22;6550;48.650;8.774;2023-07-22T02:31:25;13.40;99.90
12971;DHT22;6550;48.650;8.774;2023-07-22T02:33:52;13.50;99.90
12971;DHT22;6550;48.650;8.774;2023-07-22T02:36:19;13.50;99.90
12971;DHT22;6550;48.650;8.774;2023-07-22T02:38:48;13.00;99.90
12971;DHT22;6550;48.650;8.774;2023-07-22T02:41:15;13.40;99.90
12971;DHT22;6550;48.650;8.774;2023-07-22T02:43:42;13.30;99.90
12971;DHT22;6550;48.650;8.774;2023-07-22T02:46:10;13.20;99.90
12971;DHT22;6550;48.650;8.774;2023-07-22T02:48:37;13.20;99.90
12971;DHT22;6550;48.650;8.774;2023-07-22T02:51:07;13.20;99.90
12971;DHT22;6550;48.650;8.774;2023-07-22T02:53:34;13.10;99.90
12971;DHT22;6550;48.650;8.774;2023-07-22T02:56:07;13.20;99.90
12971;DHT22;6550;48.650;8.774;2023-07-22T02:58:34;13.20;99.90
12971;DHT22;6550;48.650;8.774;2023-07-22T03:01:03;13.00;99.90
12971;DHT22;6550;48.650;8.774;2023-07-22T03:03:31;13.30;99.90
12971;DHT22;6550;48.650;8.774;2023-07-22T03:06:01;13.50;99.90
12971;DHT22;6550;48.650;8.774;2023-07-22T03:08:31;13.20;99.90
12971;DHT22;6550;48.650;8.774;2023-07-22T03:10:59;13.20;99.90
12971;DHT22;6550;48.650;8.774;2023-07-22T03:13:25;13.10;99.90
12971;DHT22;6550;48.650;8.774;2023-07-22T03:15:58;13.10;99.90
12971;DHT22;6550;48.650;8.774;2023-07-22T03:18:31;13.10;99.90
12971;DHT22;6550;48.650;8.774;2023-07-22T03:21:00;13.10;99.90
12971;DHT22;6550;48.650;8.774;2023-07-22T03:23:27;13.00;99.90
12971;DHT22;6550;48.650;8.774;2023-07-22T03:25:54;13.00;99.90
12971;DHT22;6550;48.650;8.774;2023-07-22T03:28:20;12.90;99.90
12971;DHT22;6550;48.650;8.774;2023-07-22T03:30:49;13.40;99.90
12971;DHT22;6550;48.650;8.774;2023-07-22T03:33:19;13.40;99.90
12971;DHT22;6550;48.650;8.774;2023-07-22T03:35:46;12.90;99.90
12971;DHT22;6550;48.650;8.774;2023-07-22T03:38:13;12.90;99.90
12971;DHT22;6550;48.650;8.774;2023-07-22T03:40:40;12.80;99.90
12971;DHT22;6550;48.650;8.774;2023-07-22T03:43:09;12.80;99.90
12971;DHT22;6550;48.650;8.774;2023-07-22T03:45:38;12.80;99.90
12971;DHT22;6550;48.650;8.774;2023-07-22T03:48:07;12.80;99.90
12971;DHT22;6550;48.650;8.774;2023-07-22T03:53:02;12.70;99.90
12971;DHT22;6550;48.650;8.774;2023-07-22T03:55:29;12.60;99.90
12971;DHT22;6550;48.650;8.774;2023-07-22T03:57:58;12.70;99.90
12971;DHT22;6550;48.650;8.774;2023-07-22T04:00:27;12.80;99.90
12971;DHT22;6550;48.650;8.774;2023-07-22T04:02:56;12.70;99.90
12971;DHT22;6550;48.650;8.774;2023-07-22T04:05:26;12.70;99.90
12971;DHT22;6550;48.650;8.774;2023-07-22T04:07:53;12.70;99.90
12971;DHT22;6550;48.650;8.774;2023-07-22T04:10:19;13.50;99.90
12971;DHT22;6550;48.650;8.774;2023-07-22T04:12:46;12.60;99.90
12971;DHT22;6550;48.650;8.774;2023-07-22T04:15:15;12.70;99.90
12971;DHT22;6550;48.650;8.774;2023-07-22T04:17:43;12.70;99.90
12971;DHT22;6550;48.650;8.774;2023-07-22T04:20:11;12.70;99.90
12971;DHT22;6550;48.650;8.774;2023-07-22T04:22:41;12.70;99.90
12971;DHT22;6550;48.650;8.774;2023-07-22T04:25:08;12.70;99.90
12971;DHT22;6550;48.650;8.774;2023-07-22T04:27:35;12.90;99.90
12971;DHT22;6550;48.650;8.774;2023-07-22T04:30:02;12.50;99.90
12971;DHT22;6550;48.650;8.774;2023-07-22T04:32:29;12.70;99.90
12971;DHT22;6550;48.650;8.774;2023-07-22T04:35:00;13.10;99.90
12971;DHT22;6550;48.650;8.774;2023-07-22T04:37:26;13.60;99.90
12971;DHT22;6550;48.650;8.774;2023-07-22T04:39:54;12.10;99.90
12971;DHT22;6550;48.650;8.774;2023-07-22T04:42:21;13.40;99.90
12971;DHT22;6550;48.650;8.774;2023-07-22T04:44:47;12.30;99.90
12971;DHT22;6550;48.650;8.774;2023-07-22T04:47:15;12.60;99.90
12971;DHT22;6550;48.650;8.774;2023-07-22T04:49:42;12.70;99.90
12971;DHT22;6550;48.650;8.774;2023-07-22T04:52:09;12.80;99.90
12971;DHT22;6550;48.650;8.774;2023-07-22T04:54:38;13.10;99.90
12971;DHT22;6550;48.650;8.774;2023-07-22T04:57:05;12.70;99.90
12971;DHT22;6550;48.650;8.774;2023-07-22T04:59:32;12.70;99.90
12971;DHT22;6550;48.650;8.774;2023-07-22T05:02:01;13.80;99.90
12971;DHT22;6550;48.650;8.774;2023-07-22T05:04:30;12.90;99.90
12971;DHT22;6550;48.650;8.774;2023-07-22T05:07:04;13.40;99.90
12971;DHT22;6550;48.650;8.774;2023-07-22T05:09:33;13.00;99.90
12971;DHT22;6550;48.650;8.774;2023-07-22T05:12:02;13.60;99.90
12971;DHT22;6550;48.650;8.774;2023-07-22T05:14:29;13.00;99.90
12971;DHT22;6550;48.650;8.774;2023-07-22T05:16:59;13.10;99.90
12971;DHT22;6550;48.650;8.774;2023-07-22T05:19:26;13.30;99.90
12971;DHT22;6550;48.650;8.774;2023-07-22T05:21:52;13.20;99.90
12971;DHT22;6550;48.650;8.774;2023-07-22T05:24:19;13.20;99.90
12971;DHT22;6550;48.650;8.774;2023-07-22T05:26:47;13.50;99.90
12971;DHT22;6550;48.650;8.774;2023-07-22T05:29:34;13.70;99.90
12971;DHT22;6550;48.650;8.774;2023-07-22T05:32:01;13.90;99.90
12971;DHT22;6550;48.650;8.774;2023-07-22T05:34:27;14.10;99.90
12971;DHT22;6550;48.650;8.774;2023-07-22T05:36:57;14.70;99.90
12971;DHT22;6550;48.650;8.774;2023-07-22T05:39:24;14.60;99.90
12971;DHT22;6550;48.650;8.774;2023-07-22T05:41:51;14.50;99.90
12971;DHT22;6550;48.650;8.774;2023-07-22T05:46:47;14.80;99.90
12971;DHT22;6550;48.650;8.774;2023-07-22T05:49:17;15.40;99.90
12971;DHT22;6550;48.650;8.774;2023-07-22T05:51:43;15.20;99.90
12971;DHT22;6550;48.650;8.774;2023-07-22T05:54:10;15.30;99.90
12971;DHT22;6550;48.650;8.774;2023-07-22T05:56:40;15.30;99.90
12971;DHT22;6550;48.650;8.774;2023-07-22T05:59:09;14.80;99.90
12971;DHT22;6550;48.650;8.774;2023-07-22T06:04:07;15.20;99.90
12971;DHT22;6550;48.650;8.774;2023-07-22T06:06:36;15.30;99.90
12971;DHT22;6550;48.650;8.774;2023-07-22T06:09:07;15.40;99.90
12971;DHT22;6550;48.650;8.774;2023-07-22T06:11:34;15.40;99.90
12971;DHT22;6550;48.650;8.774;2023-07-22T06:14:03;15.90;99.90
12971;DHT22;6550;48.650;8.774;2023-07-22T06:16:30;15.80;99.90
12971;DHT22;6550;48.650;8.774;2023-07-22T06:18:57;15.60;99.90
12971;DHT22;6550;48.650;8.774;2023-07-22T06:23:51;15.80;99.90
12971;DHT22;6550;48.650;8.774;2023-07-22T06:28:48;15.80;99.90
12971;DHT22;6550;48.650;8.774;2023-07-22T06:31:14;16.10;99.90
12971;DHT22;6550;48.650;8.774;2023-07-22T06:33:42;16.10;99.90
12971;DHT22;6550;48.650;8.774;2023-07-22T06:36:09;16.20;99.90
12971;DHT22;6550;48.650;8.774;2023-07-22T06:38:36;16.00;99.90
12971;DHT22;6550;48.650;8.774;2023-07-22T06:41:05;16.30;99.90
12971;DHT22;6550;48.650;8.774;2023-07-22T06:43:31;16.40;99.90
12971;DHT22;6550;48.650;8.774;2023-07-22T06:45:58;16.50;99.90
12971;DHT22;6550;48.650;8.774;2023-07-22T06:48:27;16.40;99.90
12971;DHT22;6550;48.650;8.774;2023-07-22T06:50:54;16.90;99.90
12971;DHT22;6550;48.650;8.774;2023-07-22T06:53:23;16.90;99.90
12971;DHT22;6550;48.650;8.774;2023-07-22T06:55:55;17.10;99.90
12971;DHT22;6550;48.650;8.774;2023-07-22T06:58:25;17.40;99.90
12971;DHT22;6550;48.650;8.774;2023-07-22T07:00:54;17.50;99.90
12971;DHT22;6550;48.650;8.774;2023-07-22T07:03:23;17.60;99.90
12971;DHT22;6550;48.650;8.774;2023-07-22T07:05:54;17.70;99.90
12971;DHT22;6550;48.650;8.774;2023-07-22T07:08:23;18.00;99.90
12971;DHT22;6550;48.650;8.774;2023-07-22T07:10:51;18.20;99.90
12971;DHT22;6550;48.650;8.774;2023-07-22T07:13:18;18.40;99.90
12971;DHT22;6550;48.650;8.774;2023-07-22T07:15:46;18.80;99.90
12971;DHT22;6550;48.650;8.774;2023-07-22T07:18:16;19.00;99.90
12971;DHT22;6550;48.650;8.774;2023-07-22T07:20:44;19.10;99.90
12971;DHT22;6550;48.650;8.774;2023-07-22T07:23:13;19.40;99.90
12971;DHT22;6550;48.650;8.774;2023-07-22T07:25:40;19.50;99.90
12971;DHT22;6550;48.650;8.774;2023-07-22T07:28:06;19.60;99.90
12971;DHT22;6550;48.650;8.774;2023-07-22T07:30:36;19.70;99.90
12971;DHT22;6550;48.650;8.774;2023-07-22T07:33:05;20.00;99.90
12971;DHT22;6550;48.650;8.774;2023-07-22T07:35:31;20.20;99.90
12971;DHT22;6550;48.650;8.774;2023-07-22T07:37:58;20.30;99.20
12971;DHT22;6550;48.650;8.774;2023-07-22T07:42:55;20.40;98.20
12971;DHT22;6550;48.650;8.774;2023-07-22T07:45:22;20.40;98.10
12971;DHT22;6550;48.650;8.774;2023-07-22T07:50:18;20.80;96.00
12971;DHT22;6550;48.650;8.774;2023-07-22T07:52:45;20.70;94.00
12971;DHT22;6550;48.650;8.774;2023-07-22T07:55:12;20.60;92.60
12971;DHT22;6550;48.650;8.774;2023-07-22T07:57:41;20.60;92.30
12971;DHT22;6550;48.650;8.774;2023-07-22T08:00:12;20.90;91.60
12971;DHT22;6550;48.650;8.774;2023-07-22T08:02:42;21.40;91.20
12971;DHT22;6550;48.650;8.774;2023-07-22T08:05:09;21.40;89.70
12971;DHT22;6550;48.650;8.774;2023-07-22T08:07:38;21.30;89.70
12971;DHT22;6550;48.650;8.774;2023-07-22T08:10:08;21.40;87.90
12971;DHT22;6550;48.650;8.774;2023-07-22T08:15:04;21.80;84.20
12971;DHT22;6550;48.650;8.774;2023-07-22T08:17:31;21.70;83.90
12971;DHT22;6550;48.650;8.774;2023-07-22T08:22:25;22.00;81.00
12971;DHT22;6550;48.650;8.774;2023-07-22T08:24:52;21.70;81.90
12971;DHT22;6550;48.650;8.774;2023-07-22T08:27:21;21.50;81.10
12971;DHT22;6550;48.650;8.774;2023-07-22T08:29:50;21.30;79.90
12971;DHT22;6550;48.650;8.774;2023-07-22T08:32:23;21.10;82.20
12971;DHT22;6550;48.650;8.774;2023-07-22T08:34:50;21.00;80.90
12971;DHT22;6550;48.650;8.774;2023-07-22T08:37:17;21.00;80.80
12971;DHT22;6550;48.650;8.774;2023-07-22T08:39:44;21.00;81.60
12971;DHT22;6550;48.650;8.774;2023-07-22T08:42:11;21.00;82.70
12971;DHT22;6550;48.650;8.774;2023-07-22T08:44:43;20.90;82.60
12971;DHT22;6550;48.650;8.774;2023-07-22T08:47:15;20.90;81.90
12971;DHT22;6550;48.650;8.774;2023-07-22T08:49:48;21.20;80.90
12971;DHT22;6550;48.650;8.774;2023-07-22T08:52:17;21.60;81.00
12971;DHT22;6550;48.650;8.774;2023-07-22T08:54:52;22.10;80.40
12971;DHT22;6550;48.650;8.774;2023-07-22T08:57:20;22.30;79.60
12971;DHT22;6550;48.650;8.774;2023-07-22T08:59:48;22.30;78.50
12971;DHT22;6550;48.650;8.774;2023-07-22T09:02:16;22.00;79.20
12971;DHT22;6550;48.650;8.774;2023-07-22T09:04:43;22.00;80.30
12971;DHT22;6550;48.650;8.774;2023-07-22T09:07:11;22.00;80.00
12971;DHT22;6550;48.650;8.774;2023-07-22T09:09:38;21.70;78.50
12971;DHT22;6550;48.650;8.774;2023-07-22T09:12:06;21.60;79.30
12971;DHT22;6550;48.650;8.774;2023-07-22T09:14:34;21.60;80.80
12971;DHT22;6550;48.650;8.774;2023-07-22T09:17:05;21.50;81.40
12971;DHT22;6550;48.650;8.774;2023-07-22T09:19:34;21.40;81.70
12971;DHT22;6550;48.650;8.774;2023-07-22T09:22:01;21.60;81.60
12971;DHT22;6550;48.650;8.774;2023-07-22T09:24:27;21.70;81.00
12971;DHT22;6550;48.650;8.774;2023-07-22T09:26:55;21.60;80.60
12971;DHT22;6550;48.650;8.774;2023-07-22T09:29:35;21.70;80.00
12971;DHT22;6550;48.650;8.774;2023-07-22T09:32:03;21.60;78.20
12971;DHT22;6550;48.650;8.774;2023-07-22T09:34:30;21.70;79.90
12971;DHT22;6550;48.650;8.774;2023-07-22T09:36:58;21.30;80.60
12971;DHT22;6550;48.650;8.774;2023-07-22T09:39:30;21.50;79.50
12971;DHT22;6550;48.650;8.774;2023-07-22T09:41:57;21.50;78.70
12971;DHT22;6550;48.650;8.774;2023-07-22T09:44:30;21.50;78.90
12971;DHT22;6550;48.650;8.774;2023-07-22T09:47:06;21.50;79.00
12971;DHT22;6550;48.650;8.774;2023-07-22T09:49:40;21.30;80.00
12971;DHT22;6550;48.650;8.774;2023-07-22T09:52:10;21.40;82.00
12971;DHT22;6550;48.650;8.774;2023-07-22T09:54:47;21.30;81.80
12971;DHT22;6550;48.650;8.774;2023-07-22T09:57:15;21.20;80.20
12971;DHT22;6550;48.650;8.774;2023-07-22T09:59:42;20.90;80.80
12971;DHT22;6550;48.650;8.774;2023-07-22T10:02:13;20.90;81.40
12971;DHT22;6550;48.650;8.774;2023-07-22T10:04:40;21.10;81.50
12971;DHT22;6550;48.650;8.774;2023-07-22T10:09:37;21.60;80.40
12971;DHT22;6550;48.650;8.774;2023-07-22T10:12:05;21.60;80.90
12971;DHT22;6550;48.650;8.774;2023-07-22T10:14:32;21.90;79.10
12971;DHT22;6550;48.650;8.774;2023-07-22T10:17:07;22.10;78.50
12971;DHT22;6550;48.650;8.774;2023-07-22T10:19:38;22.10;79.00
12971;DHT22;6550;48.650;8.774;2023-07-22T10:22:08;21.90;79.30
12971;DHT22;6550;48.650;8.774;2023-07-22T10:24:39;22.00;79.60
12971;DHT22;6550;48.650;8.774;2023-07-22T10:27:09;21.90;79.90
12971;DHT22;6550;48.650;8.774;2023-07-22T10:29:39;21.90;79.70
12971;DHT22;6550;48.650;8.774;2023-07-22T10:32:10;21.80;79.10
12971;DHT22;6550;48.650;8.774;2023-07-22T10:34:36;21.80;79.10
12971;DHT22;6550;48.650;8.774;2023-07-22T10:37:03;22.10;79.40
12971;DHT22;6550;48.650;8.774;2023-07-22T10:42:04;22.50;76.20
12971;DHT22;6550;48.650;8.774;2023-07-22T10:44:33;22.60;76.00
12971;DHT22;6550;48.650;8.774;2023-07-22T10:47:02;22.60;76.00
12971;DHT22;6550;48.650;8.774;2023-07-22T10:49:47;22.70;76.20
12971;DHT22;6550;48.650;8.774;2023-07-22T10:52:15;23.30;75.30
12971;DHT22;6550;48.650;8.774;2023-07-22T10:55:04;23.60;74.00
12971;DHT22;6550;48.650;8.774;2023-07-22T10:57:53;23.60;71.90
12971;DHT22;6550;48.650;8.774;2023-07-22T11:00:24;23.50;72.60
12971;DHT22;6550;48.650;8.774;2023-07-22T11:03:12;23.40;72.50
12971;DHT22;6550;48.650;8.774;2023-07-22T11:06:00;23.40;73.10
12971;DHT22;6550;48.650;8.774;2023-07-22T11:08:45;23.40;72.60
12971;DHT22;6550;48.650;8.774;2023-07-22T11:11:11;23.60;72.90
12971;DHT22;6550;48.650;8.774;2023-07-22T11:13:38;23.50;73.40
12971;DHT22;6550;48.650;8.774;2023-07-22T11:16:11;23.40;71.20
12971;DHT22;6550;48.650;8.774;2023-07-22T11:18:39;23.20;71.30
12971;DHT22;6550;48.650;8.774;2023-07-22T11:21:10;23.30;71.20
12971;DHT22;6550;48.650;8.774;2023-07-22T11:23:42;23.00;71.60
12971;DHT22;6550;48.650;8.774;2023-07-22T11:26:10;22.80;71.00
12971;DHT22;6550;48.650;8.774;2023-07-22T11:28:39;22.90;72.70
12971;DHT22;6550;48.650;8.774;2023-07-22T11:31:07;23.10;71.60
12971;DHT22;6550;48.650;8.774;2023-07-22T11:33:39;23.50;70.90
12971;DHT22;6550;48.650;8.774;2023-07-22T11:36:09;23.60;70.90
12971;DHT22;6550;48.650;8.774;2023-07-22T11:38:36;23.50;69.30
12971;DHT22;6550;48.650;8.774;2023-07-22T11:41:04;23.70;68.80
12971;DHT22;6550;48.650;8.774;2023-07-22T11:43:32;23.70;72.80
12971;DHT22;6550;48.650;8.774;2023-07-22T11:45:58;23.60;70.60
12971;DHT22;6550;48.650;8.774;2023-07-22T11:48:25;23.60;69.60
12971;DHT22;6550;48.650;8.774;2023-07-22T11:50:54;23.60;71.90
12971;DHT22;6550;48.650;8.774;2023-07-22T11:53:27;23.50;71.40
12971;DHT22;6550;48.650;8.774;2023-07-22T11:55:55;23.50;70.80
12971;DHT22;6550;48.650;8.774;2023-07-22T11:58:26;23.90;70.80
12971;DHT22;6550;48.650;8.774;2023-07-22T12:01:05;23.80;69.70
12971;DHT22;6550;48.650;8.774;2023-07-22T12:03:33;24.50;67.70
12971;DHT22;6550;48.650;8.774;2023-07-22T12:06:02;24.50;68.30
12971;DHT22;6550;48.650;8.774;2023-07-22T12:08:29;24.50;65.40
12971;DHT22;6550;48.650;8.774;2023-07-22T12:10:57;24.70;66.50
12971;DHT22;6550;48.650;8.774;2023-07-22T12:13:25;24.90;66.20
12971;DHT22;6550;48.650;8.774;2023-07-22T12:16:02;24.80;66.20
12971;DHT22;6550;48.650;8.774;2023-07-22T12:18:44;24.70;67.10
12971;DHT22;6550;48.650;8.774;2023-07-22T12:21:12;24.80;66.40
12971;DHT22;6550;48.650;8.774;2023-07-22T12:23:38;24.70;69.50
12971;DHT22;6550;48.650;8.774;2023-07-22T12:26:08;24.30;69.70
12971;DHT22;6550;48.650;8.774;2023-07-22T12:28:37;24.70;67.20
12971;DHT22;6550;48.650;8.774;2023-07-22T12:31:04;24.60;66.60
12971;DHT22;6550;48.650;8.774;2023-07-22T12:33:34;24.40;68.70
12971;DHT22;6550;48.650;8.774;2023-07-22T12:36:05;24.00;68.60
12971;DHT22;6550;48.650;8.774;2023-07-22T12:38:32;24.10;68.50
12971;DHT22;6550;48.650;8.774;2023-07-22T12:41:00;23.50;65.30
12971;DHT22;6550;48.650;8.774;2023-07-22T12:43:27;24.40;66.10
12971;DHT22;6550;48.650;8.774;2023-07-22T12:45:57;24.30;64.00
12971;DHT22;6550;48.650;8.774;2023-07-22T12:48:24;24.30;64.20
12971;DHT22;6550;48.650;8.774;2023-07-22T12:50:52;24.70;64.50
12971;DHT22;6550;48.650;8.774;2023-07-22T12:53:19;25.00;64.30
12971;DHT22;6550;48.650;8.774;2023-07-22T12:55:46;25.00;63.60
12971;DHT22;6550;48.650;8.774;2023-07-22T12:58:16;24.80;64.80
12971;DHT22;6550;48.650;8.774;2023-07-22T13:00:43;24.90;65.90
12971;DHT22;6550;48.650;8.774;2023-07-22T13:03:10;25.00;65.50
12971;DHT22;6550;48.650;8.774;2023-07-22T13:05:37;25.00;64.60
12971;DHT22;6550;48.650;8.774;2023-07-22T13:08:06;24.80;65.50
12971;DHT22;6550;48.650;8.774;2023-07-22T13:10:35;24.80;65.50
12971;DHT22;6550;48.650;8.774;2023-07-22T13:13:06;24.90;66.70
12971;DHT22;6550;48.650;8.774;2023-07-22T13:15:37;24.70;65.40
12971;DHT22;6550;48.650;8.774;2023-07-22T13:18:03;24.70;66.00
12971;DHT22;6550;48.650;8.774;2023-07-22T13:20:34;24.70;65.70
12971;DHT22;6550;48.650;8.774;2023-07-22T13:23:03;24.70;65.60
12971;DHT22;6550;48.650;8.774;2023-07-22T13:25:30;24.60;65.50
12971;DHT22;6550;48.650;8.774;2023-07-22T13:27:57;24.40;67.20
12971;DHT22;6550;48.650;8.774;2023-07-22T13:30:26;24.70;66.00
12971;DHT22;6550;48.650;8.774;2023-07-22T13:32:57;25.00;68.30
12971;DHT22;6550;48.650;8.774;2023-07-22T13:35:24;24.90;68.30
12971;DHT22;6550;48.650;8.774;2023-07-22T13:37:53;25.10;67.70
12971;DHT22;6550;48.650;8.774;2023-07-22T13:40:20;25.20;63.70
12971;DHT22;6550;48.650;8.774;2023-07-22T13:42:47;25.30;63.20
12971;DHT22;6550;48.650;8.774;2023-07-22T13:45:14;25.30;64.80
12971;DHT22;6550;48.650;8.774;2023-07-22T13:47:41;25.30;64.30
12971;DHT22;6550;48.650;8.774;2023-07-22T13:50:09;25.30;68.10
12971;DHT22;6550;48.650;8.774;2023-07-22T13:52:35;25.30;63.40
12971;DHT22;6550;48.650;8.774;2023-07-22T13:55:03;24.70;62.60
12971;DHT22;6550;48.650;8.774;2023-07-22T13:57:29;25.20;63.60
12971;DHT22;6550;48.650;8.774;2023-07-22T13:59:56;25.20;62.30
12971;DHT22;6550;48.650;8.774;2023-07-22T14:02:23;25.50;63.10
12971;DHT22;6550;48.650;8.774;2023-07-22T14:04:52;25.40;62.30
12971;DHT22;6550;48.650;8.774;2023-07-22T14:09:49;25.40;62.60
12971;DHT22;6550;48.650;8.774;2023-07-22T14:12:18;25.20;63.10
12971;DHT22;6550;48.650;8.774;2023-07-22T14:14:48;25.20;61.40
12971;DHT22;6550;48.650;8.774;2023-07-22T14:17:17;25.20;63.60
12971;DHT22;6550;48.650;8.774;2023-07-22T14:19:48;25.30;60.40
12971;DHT22;6550;48.650;8.774;2023-07-22T14:22:17;25.60;61.30
12971;DHT22;6550;48.650;8.774;2023-07-22T14:24:44;25.70;62.70
12971;DHT22;6550;48.650;8.774;2023-07-22T14:27:11;25.60;63.90
12971;DHT22;6550;48.650;8.774;2023-07-22T14:29:40;25.20;64.70
12971;DHT22;6550;48.650;8.774;2023-07-22T14:32:09;25.20;64.00
12971;DHT22;6550;48.650;8.774;2023-07-22T14:34:36;25.30;65.60
12971;DHT22;6550;48.650;8.774;2023-07-22T14:37:05;25.20;62.80
12971;DHT22;6550;48.650;8.774;2023-07-22T14:39:32;25.20;63.90
12971;DHT22;6550;48.650;8.774;2023-07-22T14:42:01;25.20;61.90
12971;DHT22;6550;48.650;8.774;2023-07-22T14:44:28;25.40;61.30
12971;DHT22;6550;48.650;8.774;2023-07-22T14:46:54;25.30;62.40
12971;DHT22;6550;48.650;8.774;2023-07-22T14:49:21;25.20;62.80
12971;DHT22;6550;48.650;8.774;2023-07-22T14:51:50;25.00;62.70
12971;DHT22;6550;48.650;8.774;2023-07-22T14:54:19;24.80;62.90
12971;DHT22;6550;48.650;8.774;2023-07-22T14:56:48;24.50;62.90
12971;DHT22;6550;48.650;8.774;2023-07-22T14:59:15;24.50;63.60
12971;DHT22;6550;48.650;8.774;2023-07-22T15:01:42;24.50;63.00
12971;DHT22;6550;48.650;8.774;2023-07-22T15:04:09;24.80;63.90
12971;DHT22;6550;48.650;8.774;2023-07-22T15:06:36;25.00;63.60
12971;DHT22;6550;48.650;8.774;2023-07-22T15:09:03;24.90;62.50
12971;DHT22;6550;48.650;8.774;2023-07-22T15:11:37;25.00;62.00
12971;DHT22;6550;48.650;8.774;2023-07-22T15:14:04;25.20;63.20
12971;DHT22;6550;48.650;8.774;2023-07-22T15:16:35;25.10;63.90
12971;DHT22;6550;48.650;8.774;2023-07-22T15:19:02;25.00;63.60
12971;DHT22;6550;48.650;8.774;2023-07-22T15:21:29;24.80;62.20
12971;DHT22;6550;48.650;8.774;2023-07-22T15:23:58;25.00;62.80
12971;DHT22;6550;48.650;8.774;2023-07-22T15:26:25;24.80;62.20
12971;DHT22;6550;48.650;8.774;2023-07-22T15:28:55;24.90;63.70
12971;DHT22;6550;48.650;8.774;2023-07-22T15:31:24;24.60;61.70
12971;DHT22;6550;48.650;8.774;2023-07-22T15:33:51;24.70;61.60
12971;DHT22;6550;48.650;8.774;2023-07-22T15:36:18;24.70;64.00
12971;DHT22;6550;48.650;8.774;2023-07-22T15:38:45;24.80;63.20
12971;DHT22;6550;48.650;8.774;2023-07-22T15:41:14;24.80;61.90
12971;DHT22;6550;48.650;8.774;2023-07-22T15:46:11;24.80;60.80
12971;DHT22;6550;48.650;8.774;2023-07-22T15:48:38;24.70;62.70
12971;DHT22;6550;48.650;8.774;2023-07-22T15:51:04;24.80;62.40
12971;DHT22;6550;48.650;8.774;2023-07-22T15:53:32;24.90;62.00
12971;DHT22;6550;48.650;8.774;2023-07-22T15:55:59;25.20;62.30
12971;DHT22;6550;48.650;8.774;2023-07-22T15:58:26;25.40;63.50
12971;DHT22;6550;48.650;8.774;2023-07-22T16:00:53;25.20;64.00
12971;DHT22;6550;48.650;8.774;2023-07-22T16:03:20;25.30;62.40
12971;DHT22;6550;48.650;8.774;2023-07-22T16:05:49;25.30;61.90
12971;DHT22;6550;48.650;8.774;2023-07-22T16:08:15;25.30;62.00
12971;DHT22;6550;48.650;8.774;2023-07-22T16:10:45;25.20;60.90
12971;DHT22;6550;48.650;8.774;2023-07-22T16:13:14;25.40;61.10
12971;DHT22;6550;48.650;8.774;2023-07-22T16:15:43;25.50;61.20
12971;DHT22;6550;48.650;8.774;2023-07-22T16:18:10;25.30;60.80
12971;DHT22;6550;48.650;8.774;2023-07-22T16:20:39;25.50;62.10
12971;DHT22;6550;48.650;8.774;2023-07-22T16:23:08;25.80;61.60
12971;DHT22;6550;48.650;8.774;2023-07-22T16:25:34;25.90;59.70
12971;DHT22;6550;48.650;8.774;2023-07-22T16:28:04;25.90;60.50
12971;DHT22;6550;48.650;8.774;2023-07-22T16:33:00;26.50;59.40